createdAt,value
2019-04-16T00:01:39.329Z,97872.86
2019-04-16T00:04:27.493Z,97869.52
2019-04-16T00:07:15.865Z,97864.41
2019-04-16T00:09:52.889Z,97863.22
2019-04-16T00:12:41.014Z,97865.71
2019-04-16T00:15:10.484Z,97863.45
2019-04-16T00:17:44.356Z,97863.88
2019-04-16T00:20:13.594Z,97868.58
2019-04-16T00:22:50.583Z,97871.84
2019-04-16T00:25:19.980Z,97869.34
2019-04-16T00:27:50.444Z,97870.72
2019-04-16T00:30:19.963Z,97866.86
2019-04-16T00:32:50.380Z,97868.33
2019-04-16T00:35:24.377Z,97862.64
2019-04-16T00:37:56.463Z,97857.03
2019-04-16T00:40:26.619Z,97856.01
2019-04-16T00:43:00.921Z,97846.66
2019-04-16T00:45:31.548Z,97841.84
2019-04-16T00:48:03.472Z,97840.69
2019-04-16T00:50:34.014Z,97844.55
2019-04-16T00:53:07.638Z,97847.16
2019-04-16T00:55:35.678Z,97845.27
2019-04-16T00:58:06.424Z,97854.78
2019-04-16T01:00:38.052Z,97857.84
2019-04-16T01:03:08.425Z,97853.66
2019-04-16T01:05:40.656Z,97853.66
2019-04-16T01:08:11.049Z,97852.87
2019-04-16T01:10:40.401Z,97854.98
2019-04-16T01:13:09.798Z,97854.18
2019-04-16T01:15:40.158Z,97854.03
2019-04-16T01:18:09.540Z,97852.83
2019-04-16T01:20:40.396Z,97853.13
2019-04-16T01:23:12.002Z,97857.09
2019-04-16T01:25:41.363Z,97851.72
2019-04-16T01:28:16.498Z,97853.07
2019-04-16T01:31:06.907Z,97843.30
2019-04-16T01:33:56.670Z,97847.34
2019-04-16T01:36:30.925Z,97845.19
2019-04-16T01:39:15.972Z,97840.46
2019-04-16T01:41:35.081Z,97843.14
2019-04-16T01:44:05.810Z,97838.16
2019-04-16T01:46:35.207Z,97839.72
2019-04-16T01:49:09.795Z,97834.14
2019-04-16T01:51:37.884Z,97840.03
2019-04-16T01:54:09.835Z,97836.67
2019-04-16T01:56:40.331Z,97843.05
2019-04-16T01:59:10.754Z,97844.98
2019-04-16T02:01:43.364Z,97836.16
2019-04-16T02:04:13.544Z,97832.83
2019-04-16T02:06:43.854Z,97831.56
2019-04-16T02:09:22.355Z,97834.63
2019-04-16T02:11:46.215Z,97838.06
2019-04-16T02:14:18.438Z,97838.55
2019-04-16T02:16:48.828Z,97838.43
2019-04-16T02:19:19.310Z,97840.32
2019-04-16T02:21:49.714Z,97834.51
2019-04-16T02:24:19.458Z,97839.92
2019-04-16T02:26:54.568Z,97838.39
2019-04-16T02:29:22.080Z,97841.33
2019-04-16T02:31:52.542Z,97844.76
2019-04-16T02:34:22.214Z,97846.98
2019-04-16T02:36:52.567Z,97849.36
2019-04-16T02:39:46.254Z,97853.34
2019-04-16T02:41:58.087Z,97852.80
2019-04-16T02:44:28.492Z,97859.20
2019-04-16T02:47:05.089Z,97862.42
2019-04-16T02:49:34.205Z,97868.81
2019-04-16T02:52:21.217Z,97869.25
2019-04-16T02:54:53.194Z,97872.86
2019-04-16T02:57:26.622Z,97871.04
2019-04-16T02:59:59.054Z,97866.02
2019-04-16T03:02:45.603Z,97871.59
2019-04-16T03:05:18.626Z,97872.82
2019-04-16T03:07:49.137Z,97866.78
2019-04-16T03:10:18.819Z,97863.20
2019-04-16T03:12:51.900Z,97861.50
2019-04-16T03:15:24.214Z,97868.69
2019-04-16T03:17:54.937Z,97863.16
2019-04-16T03:20:25.460Z,97865.34
2019-04-16T03:22:55.955Z,97865.14
2019-04-16T03:25:27.427Z,97864.36
2019-04-16T03:27:58.960Z,97867.45
2019-04-16T03:30:29.561Z,97864.58
2019-04-16T03:32:58.879Z,97868.16
2019-04-16T03:35:30.293Z,97859.55
2019-04-16T03:38:01.597Z,97864.72
2019-04-16T03:40:31.822Z,97869.93
2019-04-16T03:43:04.034Z,97862.53
2019-04-16T03:45:34.431Z,97868.20
2019-04-16T03:48:05.164Z,97872.23
2019-04-16T03:50:34.740Z,97876.38
2019-04-16T03:53:04.073Z,97878.89
2019-04-16T03:55:33.429Z,97882.22
2019-04-16T03:58:06.921Z,97880.27
2019-04-16T04:00:43.713Z,97879.70
2019-04-16T04:03:11.843Z,97883.39
2019-04-16T04:05:41.214Z,97879.14
2019-04-16T04:08:16.359Z,97876.16
2019-04-16T04:10:41.644Z,97882.14
2019-04-16T04:13:17.410Z,97882.14
2019-04-16T04:15:43.259Z,97875.45
2019-04-16T04:18:13.671Z,97876.72
2019-04-16T04:23:14.737Z,97874.98
2019-04-16T04:25:44.252Z,97880.40
2019-04-16T04:28:18.552Z,97880.48
2019-04-16T04:30:48.776Z,97879.10
2019-04-16T04:33:40.879Z,97881.86
2019-04-16T04:36:08.847Z,97884.16
2019-04-16T04:38:38.626Z,97893.08
2019-04-16T04:41:09.352Z,97899.39
2019-04-16T04:43:39.850Z,97908.62
2019-04-16T04:46:12.982Z,97909.62
2019-04-16T04:48:39.696Z,97908.28
2019-04-16T04:51:10.161Z,97905.42
2019-04-16T04:53:38.962Z,97900.91
2019-04-16T04:56:10.935Z,97898.83
2019-04-16T04:58:41.341Z,97893.86
2019-04-16T05:01:13.374Z,97895.65
2019-04-16T05:03:48.528Z,97886.46
2019-04-16T05:06:28.686Z,97889.61
2019-04-16T05:09:00.380Z,97893.81
2019-04-16T05:11:31.138Z,97887.14
2019-04-16T05:14:01.540Z,97888.77
2019-04-16T05:16:34.360Z,97887.60
2019-04-16T05:19:04.116Z,97890.41
2019-04-16T05:21:32.831Z,97886.53
2019-04-16T05:24:01.689Z,97884.34
2019-04-16T05:26:33.487Z,97887.87
2019-04-16T05:29:17.449Z,97885.11
2019-04-16T05:31:43.293Z,97889.93
2019-04-16T05:34:17.441Z,97887.39
2019-04-16T05:36:47.734Z,97885.41
2019-04-16T05:39:17.390Z,97885.41
2019-04-16T05:41:50.342Z,97892.06
2019-04-16T05:44:19.765Z,97893.67
2019-04-16T05:46:51.792Z,97897.66
2019-04-16T05:49:25.662Z,97897.50
2019-04-16T05:51:54.326Z,97899.92
2019-04-16T05:54:37.285Z,97898.77
2019-04-16T05:57:10.672Z,97899.60
2019-04-16T05:59:41.105Z,97899.08
2019-04-16T06:02:15.175Z,97903.10
2019-04-16T06:04:43.397Z,97896.71
2019-04-16T06:07:12.795Z,97896.56
2019-04-16T06:09:44.382Z,97902.70
2019-04-16T06:12:14.222Z,97903.39
2019-04-16T06:15:01.085Z,97899.69
2019-04-16T06:17:33.039Z,97896.55
2019-04-16T06:20:05.037Z,97888.14
2019-04-16T06:22:41.912Z,97886.06
2019-04-16T06:25:29.296Z,97886.31
2019-04-16T06:28:16.361Z,97885.33
2019-04-16T06:30:48.436Z,97893.56
2019-04-16T06:33:22.282Z,97890.20
2019-04-16T06:36:00.104Z,97884.09
2019-04-16T06:38:33.368Z,97891.55
2019-04-16T06:41:20.343Z,97890.53
2019-04-16T06:43:51.280Z,97880.17
2019-04-16T06:46:31.053Z,97888.22
2019-04-16T06:49:02.040Z,97890.27
2019-04-16T06:51:33.078Z,97883.20
2019-04-16T06:54:25.403Z,97874.45
2019-04-16T06:57:01.462Z,97876.09
2019-04-16T06:59:39.241Z,97881.05
2019-04-16T07:02:25.353Z,97881.48
2019-04-16T07:04:58.370Z,97876.13
2019-04-16T07:07:39.871Z,97867.58
2019-04-16T07:10:09.485Z,97871.48
2019-04-16T07:12:41.962Z,97873.72
2019-04-16T07:15:13.191Z,97868.19
2019-04-16T07:17:43.527Z,97870.75
2019-04-16T07:20:16.327Z,97876.98
2019-04-16T07:22:45.736Z,97880.17
2019-04-16T07:25:15.500Z,97882.23
2019-04-16T07:27:54.510Z,97876.17
2019-04-16T07:30:24.882Z,97874.25
2019-04-16T07:32:55.894Z,97866.42
2019-04-16T07:35:43.004Z,97874.71
2019-04-16T07:38:15.083Z,97873.32
2019-04-16T07:41:05.321Z,97869.31
2019-04-16T07:43:53.851Z,97872.81
2019-04-16T07:46:31.115Z,97870.42
2019-04-16T07:49:03.281Z,97875.33
2019-04-16T07:51:36.128Z,97869.62
2019-04-16T07:54:08.902Z,97865.50
2019-04-16T07:56:40.881Z,97863.80
2019-04-16T07:59:10.274Z,97864.66
2019-04-16T08:01:44.075Z,97866.56
2019-04-16T08:04:12.918Z,97865.59
2019-04-16T08:06:46.186Z,97870.03
2019-04-16T08:09:15.399Z,97862.01
2019-04-16T08:11:45.920Z,97861.86
2019-04-16T08:14:16.313Z,97854.48
2019-04-16T08:16:47.787Z,97862.67
2019-04-16T08:19:17.691Z,97854.56
2019-04-16T08:21:47.052Z,97865.64
2019-04-16T08:24:18.050Z,97859.87
2019-04-16T08:26:47.445Z,97863.78
2019-04-16T08:29:18.123Z,97859.89
2019-04-16T08:31:50.931Z,97865.74
2019-04-16T08:34:21.438Z,97854.78
2019-04-16T08:36:51.961Z,97853.18
2019-04-16T08:39:21.360Z,97855.49
2019-04-16T08:41:52.476Z,97852.33
2019-04-16T08:44:23.169Z,97860.86
2019-04-16T08:46:54.718Z,97853.42
2019-04-16T08:49:25.437Z,97854.38
2019-04-16T08:51:55.945Z,97845.47
2019-04-16T08:54:26.562Z,97845.61
2019-04-16T08:56:55.937Z,97847.22
2019-04-16T08:59:26.436Z,97847.18
2019-04-16T09:01:55.971Z,97852.20
2019-04-16T09:04:26.514Z,97850.83
2019-04-16T09:07:10.453Z,97842.38
2019-04-16T09:09:30.774Z,97850.32
2019-04-16T09:12:01.918Z,97846.28
2019-04-16T09:14:33.999Z,97851.20
2019-04-16T09:17:14.731Z,97850.45
2019-04-16T09:19:48.925Z,97850.95
2019-04-16T09:22:19.303Z,97852.63
2019-04-16T09:24:56.191Z,97848.13
2019-04-16T09:27:37.244Z,97848.36
2019-04-16T09:30:18.177Z,97853.58
2019-04-16T09:32:52.575Z,97837.30
2019-04-16T09:35:24.656Z,97852.36
2019-04-16T09:37:59.561Z,97849.30
2019-04-16T09:40:36.541Z,97842.39
2019-04-16T09:43:20.734Z,97854.81
2019-04-16T09:45:50.238Z,97851.22
2019-04-16T09:48:21.043Z,97839.70
2019-04-16T09:50:51.733Z,97843.09
2019-04-16T09:53:32.617Z,97861.00
2019-04-16T09:55:52.480Z,97856.23
2019-04-16T09:58:24.422Z,97843.97
2019-04-16T10:01:02.346Z,97844.91
2019-04-16T10:03:39.180Z,97846.54
2019-04-16T10:06:09.460Z,97846.54
2019-04-16T10:08:44.489Z,97850.17
2019-04-16T10:11:12.108Z,97841.38
2019-04-16T10:13:41.636Z,97845.34
2019-04-16T10:16:13.973Z,97840.27
2019-04-16T10:18:43.986Z,97836.47
2019-04-16T10:21:19.675Z,97832.75
2019-04-16T10:24:08.783Z,97837.42
2019-04-16T10:26:39.313Z,97827.02
2019-04-16T10:29:17.329Z,97828.20
2019-04-16T10:31:48.048Z,97822.56
2019-04-16T10:34:20.119Z,97828.66
2019-04-16T10:36:51.463Z,97830.88
2019-04-16T10:39:22.612Z,97823.00
2019-04-16T10:42:00.255Z,97824.42
2019-04-16T10:44:51.229Z,97823.69
2019-04-16T10:47:38.315Z,97823.00
2019-04-16T10:50:25.325Z,97822.93
2019-04-16T10:53:03.356Z,97818.49
2019-04-16T10:55:34.319Z,97829.81
2019-04-16T10:58:21.298Z,97833.02
2019-04-16T11:00:55.889Z,97815.70
2019-04-16T11:03:34.443Z,97815.77
2019-04-16T11:06:04.442Z,97835.91
2019-04-16T11:08:37.137Z,97834.60
2019-04-16T11:11:06.622Z,97809.77
2019-04-16T11:13:40.619Z,97806.25
2019-04-16T11:16:12.835Z,97800.28
2019-04-16T11:18:45.511Z,97801.48
2019-04-16T11:21:14.975Z,97790.87
2019-04-16T11:23:48.368Z,97800.63
2019-04-16T11:26:17.900Z,97815.44
2019-04-16T11:28:48.552Z,97786.30
2019-04-16T11:31:23.247Z,97780.82
2019-04-16T11:33:52.793Z,97789.83
2019-04-16T11:36:24.744Z,97777.05
2019-04-16T11:38:58.492Z,97784.73
2019-04-16T11:41:29.016Z,97779.11
2019-04-16T11:44:13.527Z,97805.82
2019-04-16T11:46:30.947Z,97787.88
2019-04-16T11:49:00.267Z,97774.22
2019-04-16T11:51:32.614Z,97774.13
2019-04-16T11:54:03.167Z,97768.65
2019-04-16T11:56:32.523Z,97764.95
2019-04-16T11:59:03.671Z,97756.34
2019-04-16T12:01:47.555Z,97768.35
2019-04-16T12:04:18.474Z,97764.80
2019-04-16T12:06:52.072Z,97758.19
2019-04-16T12:09:36.351Z,97760.04
2019-04-16T12:12:08.581Z,97762.16
2019-04-16T12:14:58.805Z,97760.84
2019-04-16T12:17:36.718Z,97766.24
2019-04-16T12:20:09.738Z,97768.11
2019-04-16T12:22:43.210Z,97771.84
2019-04-16T12:25:29.899Z,97762.97
2019-04-16T12:28:12.585Z,97762.91
2019-04-16T12:30:46.684Z,97768.13
2019-04-16T12:33:24.292Z,97757.08
2019-04-16T12:35:58.973Z,97756.62
2019-04-16T12:38:39.910Z,97754.48
2019-04-16T12:41:26.013Z,97751.61
2019-04-16T12:44:06.054Z,97753.16
2019-04-16T12:46:42.936Z,97756.03
2019-04-16T12:49:31.331Z,97749.20
2019-04-16T12:52:04.293Z,97736.41
2019-04-16T12:54:38.235Z,97739.30
2019-04-16T12:57:21.380Z,97733.88
2019-04-16T12:59:55.027Z,97731.45
2019-04-16T13:02:36.610Z,97734.88
2019-04-16T13:05:20.931Z,97744.80
2019-04-16T13:07:53.646Z,97728.47
2019-04-16T13:10:31.535Z,97739.58
2019-04-16T13:13:03.610Z,97751.31
2019-04-16T13:15:35.691Z,97742.53
2019-04-16T13:18:10.690Z,97742.76
2019-04-16T13:20:45.795Z,97728.50
2019-04-16T13:23:20.064Z,97732.80
2019-04-16T13:26:00.818Z,97737.02
2019-04-16T13:28:32.499Z,97730.29
2019-04-16T13:31:03.005Z,97733.69
2019-04-16T13:33:37.144Z,97735.50
2019-04-16T13:36:07.773Z,97722.97
2019-04-16T13:38:44.175Z,97735.45
2019-04-16T13:41:15.854Z,97721.28
2019-04-16T13:43:47.762Z,97719.45
2019-04-16T13:46:18.364Z,97730.05
2019-04-16T13:49:01.342Z,97713.53
2019-04-16T13:51:33.487Z,97718.66
2019-04-16T13:54:05.569Z,97725.32
2019-04-16T13:56:38.960Z,97726.20
2019-04-16T13:59:12.887Z,97716.96
2019-04-16T14:01:47.168Z,97715.49
2019-04-16T14:04:16.589Z,97717.05
2019-04-16T14:06:46.397Z,97711.39
2019-04-16T14:09:16.872Z,97713.80
2019-04-16T14:11:51.433Z,97728.37
2019-04-16T14:14:22.667Z,97725.81
2019-04-16T14:16:52.103Z,97727.66
2019-04-16T14:19:21.646Z,97727.54
2019-04-16T14:21:51.249Z,97722.13
2019-04-16T14:24:20.678Z,97723.24
2019-04-16T14:26:51.172Z,97723.27
2019-04-16T14:29:24.764Z,97724.92
2019-04-16T14:31:52.618Z,97717.73
2019-04-16T14:34:24.906Z,97716.48
2019-04-16T14:36:57.030Z,97715.13
2019-04-16T14:39:34.378Z,97712.48
2019-04-16T14:42:03.778Z,97705.44
2019-04-16T14:44:36.024Z,97711.25
2019-04-16T14:47:06.644Z,97710.30
2019-04-16T14:49:37.052Z,97707.17
2019-04-16T14:52:09.746Z,97713.50
2019-04-16T14:54:43.701Z,97707.80
2019-04-16T14:57:15.378Z,97703.70
2019-04-16T15:00:04.665Z,97712.42
2019-04-16T15:02:35.648Z,97709.66
2019-04-16T15:05:15.735Z,97713.61
2019-04-16T15:07:49.099Z,97711.27
2019-04-16T15:10:36.493Z,97708.62
2019-04-16T15:13:26.429Z,97713.33
2019-04-16T15:16:08.267Z,97707.33
2019-04-16T15:18:30.987Z,97713.16
2019-04-16T15:21:10.587Z,97711.98
2019-04-16T15:23:43.767Z,97709.00
2019-04-16T15:26:24.452Z,97709.30
2019-04-16T15:28:58.516Z,97725.83
2019-04-16T15:31:40.829Z,97716.64
2019-04-16T15:34:17.820Z,97715.88
2019-04-16T15:36:55.843Z,97717.80
2019-04-16T15:39:37.004Z,97717.75
2019-04-16T15:42:27.184Z,97733.44
2019-04-16T15:45:08.474Z,97723.78
2019-04-16T15:47:56.604Z,97725.72
2019-04-16T15:50:28.777Z,97725.84
2019-04-16T15:53:02.518Z,97723.73
2019-04-16T15:55:39.700Z,97725.85
2019-04-16T15:58:11.997Z,97720.08
2019-04-16T16:00:57.905Z,97723.91
2019-04-16T16:03:30.246Z,97729.97
2019-04-16T16:06:16.873Z,97725.93
2019-04-16T16:08:49.800Z,97723.64
2019-04-16T16:11:31.244Z,97732.11
2019-04-16T16:14:02.106Z,97729.45
2019-04-16T16:16:41.708Z,97736.02
2019-04-16T16:19:04.987Z,97727.54
2019-04-16T16:21:37.449Z,97723.23
2019-04-16T16:24:08.461Z,97730.87
2019-04-16T16:26:38.989Z,97736.13
2019-04-16T16:29:08.367Z,97733.77
2019-04-16T16:31:40.111Z,97737.09
2019-04-16T16:34:14.076Z,97739.59
2019-04-16T16:36:46.232Z,97735.13
2019-04-16T16:39:15.627Z,97741.31
2019-04-16T16:41:46.683Z,97742.20
2019-04-16T16:44:17.155Z,97745.27
2019-04-16T16:46:59.033Z,97740.78
2019-04-16T16:49:28.839Z,97747.91
2019-04-16T16:52:18.975Z,97742.81
2019-04-16T16:54:51.066Z,97745.77
2019-04-16T16:57:25.112Z,97755.43
2019-04-16T16:59:56.179Z,97756.36
2019-04-16T17:02:28.534Z,97752.84
2019-04-16T17:05:00.663Z,97756.89
2019-04-16T17:07:32.080Z,97762.96
2019-04-16T17:10:00.572Z,97760.93
2019-04-16T17:12:30.263Z,97770.03
2019-04-16T17:15:02.552Z,97765.55
2019-04-16T17:17:32.953Z,97771.64
2019-04-16T17:20:03.571Z,97775.55
2019-04-16T17:22:35.958Z,97772.41
2019-04-16T17:25:10.422Z,97773.32
2019-04-16T17:27:51.142Z,97770.03
2019-04-16T17:30:11.873Z,97770.51
2019-04-16T17:32:43.026Z,97775.01
2019-04-16T17:35:15.466Z,97783.94
2019-04-16T17:37:44.606Z,97782.32
2019-04-16T17:40:18.763Z,97785.95
2019-04-16T17:42:50.794Z,97786.33
2019-04-16T17:45:22.770Z,97791.36
2019-04-16T17:48:11.036Z,97792.19
2019-04-16T17:50:55.017Z,97791.05
2019-04-16T17:53:33.587Z,97797.16
2019-04-16T17:56:20.395Z,97789.76
2019-04-16T17:58:52.898Z,97800.75
2019-04-16T18:01:44.368Z,97802.68
2019-04-16T18:04:32.641Z,97806.42
2019-04-16T18:07:13.497Z,97811.07
2019-04-16T18:10:01.909Z,97814.56
2019-04-16T18:12:37.294Z,97809.99
2019-04-16T18:15:26.696Z,97815.37
2019-04-16T18:18:01.296Z,97817.62
2019-04-16T18:20:31.423Z,97824.19
2019-04-16T18:23:13.461Z,97827.17
2019-04-16T18:25:55.651Z,97829.20
2019-04-16T18:28:18.267Z,97828.36
2019-04-16T18:30:52.627Z,97830.36
2019-04-16T18:33:41.008Z,97826.08
2019-04-16T18:36:30.211Z,97837.39
2019-04-16T18:39:04.945Z,97838.77
2019-04-16T18:41:36.590Z,97837.99
2019-04-16T18:44:13.121Z,97839.97
2019-04-16T18:46:55.964Z,97847.69
2019-04-16T18:49:26.963Z,97848.76
2019-04-16T18:51:57.301Z,97854.05
2019-04-16T18:54:29.783Z,97855.88
2019-04-16T18:56:59.157Z,97855.95
2019-04-16T18:59:28.594Z,97856.35
2019-04-16T19:02:12.070Z,97858.18
2019-04-16T19:04:44.879Z,97860.61
2019-04-16T19:07:15.757Z,97860.73
2019-04-16T19:09:45.085Z,97872.63
2019-04-16T19:12:14.583Z,97872.62
2019-04-16T19:14:45.261Z,97877.86
2019-04-16T19:17:17.962Z,97882.89
2019-04-16T19:19:50.446Z,97881.25
2019-04-16T19:22:22.028Z,97889.63
2019-04-16T19:24:52.464Z,97888.47
2019-04-16T19:27:27.904Z,97892.44
2019-04-16T19:29:56.474Z,97896.24
2019-04-16T19:32:27.774Z,97900.69
2019-04-16T19:35:09.561Z,97899.67
2019-04-16T19:37:33.349Z,97899.66
2019-04-16T19:40:03.309Z,97914.68
2019-04-16T19:42:32.913Z,97918.48
2019-04-16T19:45:02.466Z,97921.47
2019-04-16T19:47:35.358Z,97925.28
2019-04-16T19:50:04.412Z,97933.66
2019-04-16T19:52:33.773Z,97935.48
2019-04-16T19:55:03.128Z,97936.58
2019-04-16T19:57:32.535Z,97942.22
2019-04-16T20:00:02.891Z,97936.66
2019-04-16T20:02:34.029Z,97945.21
2019-04-16T20:05:04.585Z,97947.66
2019-04-16T20:07:34.948Z,97957.45
2019-04-16T20:10:06.596Z,97966.08
2019-04-16T20:12:37.021Z,97961.88
2019-04-16T20:15:09.820Z,97965.83
2019-04-16T20:17:40.217Z,97961.25
2019-04-16T20:20:09.729Z,97956.63
2019-04-16T20:22:40.105Z,97963.86
2019-04-16T20:25:10.707Z,97962.88
2019-04-16T20:27:40.807Z,97968.25
2019-04-16T20:30:13.395Z,97967.81
2019-04-16T20:32:44.229Z,97967.84
2019-04-16T20:35:17.914Z,97976.46
2019-04-16T20:37:45.862Z,97971.59
2019-04-16T20:40:17.813Z,97975.80
2019-04-16T20:42:46.197Z,97977.37
2019-04-16T20:45:16.559Z,97979.58
2019-04-16T20:47:46.971Z,97976.80
2019-04-16T20:50:20.491Z,97983.20
2019-04-16T20:52:49.447Z,97983.78
2019-04-16T20:55:23.088Z,97985.16
2019-04-16T20:57:55.275Z,97991.73
2019-04-16T21:00:33.208Z,97987.73
2019-04-16T21:03:03.984Z,97994.14
2019-04-16T21:05:35.732Z,97992.72
2019-04-16T21:08:06.653Z,97990.07
2019-04-16T21:10:37.335Z,97998.87
2019-04-16T21:13:06.800Z,97998.23
2019-04-16T21:15:36.163Z,97998.45
2019-04-16T21:18:10.777Z,98004.19
2019-04-16T21:20:39.149Z,98008.63
2019-04-16T21:23:09.666Z,98008.41
2019-04-16T21:25:39.028Z,98005.86
2019-04-16T21:28:09.967Z,98007.22
2019-04-16T21:30:42.868Z,98009.81
2019-04-16T21:33:13.690Z,98015.38
2019-04-16T21:35:45.686Z,98012.00
2019-04-16T21:38:22.663Z,98018.16
2019-04-16T21:40:52.773Z,98017.33
2019-04-16T21:43:23.562Z,98011.95
2019-04-16T21:45:53.980Z,98011.83
2019-04-16T21:48:23.893Z,98022.00
2019-04-16T21:50:57.091Z,98019.37
2019-04-16T21:53:27.964Z,98024.62
2019-04-16T21:55:58.453Z,98031.80
2019-04-16T21:58:28.816Z,98029.91
2019-04-16T22:01:04.297Z,98040.10
2019-04-16T22:03:34.267Z,98039.50
2019-04-16T22:06:04.840Z,98041.65
2019-04-16T22:08:35.140Z,98041.04
2019-04-16T22:11:08.480Z,98043.69
2019-04-16T22:13:40.689Z,98044.73
2019-04-16T22:16:10.228Z,98052.92
2019-04-16T22:18:41.578Z,98048.20
2019-04-16T22:21:11.299Z,98047.39
2019-04-16T22:23:41.762Z,98053.20
2019-04-16T22:26:11.235Z,98050.16
2019-04-16T22:28:44.096Z,98047.75
2019-04-16T22:31:12.760Z,98052.08
2019-04-16T22:33:43.165Z,98054.87
2019-04-16T22:36:13.688Z,98047.08
2019-04-16T22:38:45.645Z,98051.97
2019-04-16T22:41:27.304Z,98060.89
2019-04-16T22:44:00.046Z,98057.09
2019-04-16T22:46:42.348Z,98060.83
2019-04-16T22:49:14.006Z,98059.98
2019-04-16T22:51:44.622Z,98064.47
2019-04-16T22:54:17.619Z,98065.30
2019-04-16T22:56:49.194Z,98062.84
2019-04-16T22:59:22.524Z,98063.16
2019-04-16T23:01:54.913Z,98071.31
2019-04-16T23:04:26.037Z,98065.53
2019-04-16T23:06:57.500Z,98069.52
2019-04-16T23:09:27.886Z,98063.20
2019-04-16T23:12:01.135Z,98064.42
2019-04-16T23:14:31.668Z,98063.62
2019-04-16T23:17:02.672Z,98071.79
2019-04-16T23:19:33.078Z,98072.30
2019-04-16T23:22:04.736Z,98076.53
2019-04-16T23:24:35.505Z,98076.11
2019-04-16T23:27:05.669Z,98083.94
2019-04-16T23:29:36.906Z,98086.59
2019-04-16T23:32:07.744Z,98083.38
2019-04-16T23:34:37.985Z,98080.80
2019-04-16T23:37:09.680Z,98078.22
2019-04-16T23:39:39.091Z,98079.45
2019-04-16T23:42:09.866Z,98087.29
2019-04-16T23:44:46.058Z,98081.05
2019-04-16T23:47:33.026Z,98084.28
2019-04-16T23:50:05.099Z,98081.59
2019-04-16T23:52:37.186Z,98090.89
2019-04-16T23:55:10.091Z,98091.14
2019-04-16T23:57:42.275Z,98093.13
